createdAt,value
2023-04-05T00:02:21.133Z,2.25
2023-04-05T00:04:52.285Z,2.33
2023-04-05T00:07:21.715Z,2.55
2023-04-05T00:09:50.488Z,1.80
2023-04-05T00:12:17.257Z,2.65
2023-04-05T00:14:43.946Z,2.70
2023-04-05T00:17:12.521Z,2.38
2023-04-05T00:19:39.588Z,2.90
2023-04-05T00:22:06.532Z,2.17
2023-04-05T00:24:34.055Z,2.38
2023-04-05T00:27:01.437Z,2.50
2023-04-05T00:29:28.434Z,2.33
2023-04-05T00:31:56.281Z,2.70
2023-04-05T00:34:23.130Z,3.22
2023-04-05T00:36:49.960Z,2.22
2023-04-05T00:39:16.682Z,1.90
2023-04-05T00:41:46.343Z,2.30
2023-04-05T00:44:14.279Z,1.45
2023-04-05T00:46:42.194Z,2.13
2023-04-05T00:49:09.390Z,2.00
2023-04-05T00:51:38.179Z,2.10
2023-04-05T00:54:05.077Z,2.08
2023-04-05T00:56:32.443Z,2.22
2023-04-05T00:58:59.380Z,2.15
2023-04-05T01:01:26.629Z,2.55
2023-04-05T01:03:55.967Z,1.95
2023-04-05T01:06:44.121Z,3.08
2023-04-05T01:09:25.861Z,3.45
2023-04-05T01:11:56.141Z,3.28
2023-04-05T01:14:23.072Z,2.63
2023-04-05T01:16:51.437Z,2.58
2023-04-05T01:19:19.156Z,2.50
2023-04-05T01:22:13.696Z,2.30
2023-04-05T01:24:50.869Z,2.35
2023-04-05T01:27:22.083Z,2.75
2023-04-05T01:30:12.953Z,2.45
2023-04-05T01:32:47.750Z,2.67
2023-04-05T01:35:31.217Z,2.38
2023-04-05T01:38:02.778Z,3.35
2023-04-05T01:40:31.525Z,2.50
2023-04-05T01:42:58.262Z,2.65
2023-04-05T01:45:24.973Z,2.40
2023-04-05T01:47:51.727Z,3.03
2023-04-05T01:50:18.466Z,3.25
2023-04-05T01:52:45.220Z,2.63
2023-04-05T01:55:11.909Z,2.63
2023-04-05T01:57:39.248Z,3.03
2023-04-05T02:00:06.670Z,2.33
2023-04-05T02:02:33.417Z,2.88
2023-04-05T02:05:00.138Z,2.60
2023-04-05T02:07:27.304Z,2.95
2023-04-05T02:09:53.970Z,2.67
2023-04-05T02:12:20.745Z,2.95
2023-04-05T02:14:47.357Z,2.45
2023-04-05T02:17:14.010Z,1.60
2023-04-05T02:19:46.342Z,2.65
2023-04-05T02:22:14.027Z,2.78
2023-04-05T02:24:41.594Z,2.55
2023-04-05T02:27:08.293Z,2.75
2023-04-05T02:29:35.035Z,2.65
2023-04-05T02:32:01.848Z,2.42
2023-04-05T02:34:28.935Z,1.98
2023-04-05T02:36:56.144Z,2.50
2023-04-05T02:39:22.934Z,2.70
2023-04-05T02:41:49.692Z,2.33
2023-04-05T02:44:16.337Z,2.25
2023-04-05T02:46:43.029Z,2.63
2023-04-05T02:49:09.701Z,2.10
2023-04-05T02:51:36.444Z,2.13
2023-04-05T02:54:03.521Z,2.65
2023-04-05T02:56:30.541Z,2.35
2023-04-05T02:58:57.213Z,2.25
2023-04-05T03:01:24.094Z,2.53
2023-04-05T03:03:51.181Z,2.30
2023-04-05T03:06:18.295Z,1.95
2023-04-05T03:08:46.252Z,2.08
2023-04-05T03:11:13.446Z,2.45
2023-04-05T03:13:40.391Z,2.08
2023-04-05T03:16:07.430Z,2.47
2023-04-05T03:18:34.123Z,1.90
2023-04-05T03:21:00.911Z,2.40
2023-04-05T03:23:29.876Z,2.60
2023-04-05T03:26:03.122Z,2.17
2023-04-05T03:28:32.572Z,2.03
2023-04-05T03:33:25.963Z,2.22
2023-04-05T03:35:53.097Z,2.33
2023-04-05T03:38:19.918Z,2.17
2023-04-05T03:40:46.782Z,2.40
2023-04-05T03:43:13.633Z,2.35
2023-04-05T03:45:40.528Z,2.67
2023-04-05T03:48:07.603Z,2.10
2023-04-05T03:50:34.285Z,2.10
2023-04-05T03:53:01.621Z,2.60
2023-04-05T03:55:28.366Z,2.58
2023-04-05T03:57:55.088Z,2.92
2023-04-05T04:00:23.926Z,2.58
2023-04-05T04:02:52.769Z,2.47
2023-04-05T04:05:20.128Z,2.03
2023-04-05T04:07:47.293Z,2.38
2023-04-05T04:10:16.902Z,2.95
2023-04-05T04:15:10.527Z,2.10
2023-04-05T04:17:37.862Z,2.65
2023-04-05T04:20:11.182Z,2.33
2023-04-05T04:22:41.487Z,3.20
2023-04-05T04:25:10.605Z,2.20
2023-04-05T04:27:42.689Z,2.63
2023-04-05T04:30:11.193Z,3.15
2023-04-05T04:32:53.529Z,2.80
2023-04-05T04:35:28.031Z,1.60
2023-04-05T04:38:05.292Z,3.00
2023-04-05T04:40:38.911Z,2.42
2023-04-05T04:43:14.480Z,2.65
2023-04-05T04:45:41.893Z,2.85
2023-04-05T04:48:08.961Z,2.40
2023-04-05T04:50:36.045Z,2.88
2023-04-05T04:53:03.094Z,2.67
2023-04-05T04:55:30.520Z,3.03
2023-04-05T04:57:57.967Z,2.85
2023-04-05T05:00:30.930Z,3.60
2023-04-05T05:02:57.719Z,2.50
2023-04-05T05:05:24.423Z,3.47
2023-04-05T05:07:52.914Z,2.67
2023-04-05T05:10:20.075Z,3.20
2023-04-05T05:12:48.767Z,3.70
2023-04-05T05:15:15.472Z,3.03
2023-04-05T05:17:42.221Z,2.58
2023-04-05T05:20:11.393Z,5.28
2023-04-05T05:22:39.278Z,3.88
2023-04-05T05:25:07.167Z,3.30
2023-04-05T05:27:36.877Z,3.83
2023-04-05T05:30:04.207Z,4.28
2023-04-05T05:32:31.125Z,4.20
2023-04-05T05:34:57.820Z,4.00
2023-04-05T05:37:34.192Z,4.35
2023-04-05T05:40:01.042Z,4.38
2023-04-05T05:42:29.220Z,4.72
2023-04-05T05:44:56.022Z,4.72
2023-04-05T05:47:22.730Z,5.30
2023-04-05T05:49:52.220Z,5.35
2023-04-05T05:52:18.834Z,4.85
2023-04-05T05:54:45.597Z,5.72
2023-04-05T05:57:12.248Z,5.95
2023-04-05T05:59:38.960Z,5.50
2023-04-05T06:02:05.741Z,6.22
2023-04-05T06:04:32.423Z,4.78
2023-04-05T06:06:59.183Z,4.38
2023-04-05T06:09:25.906Z,4.80
2023-04-05T06:11:56.416Z,4.32
2023-04-05T06:14:25.234Z,4.43
2023-04-05T06:16:52.449Z,4.55
2023-04-05T06:19:19.287Z,3.70
2023-04-05T06:21:46.155Z,4.30
2023-04-05T06:24:12.825Z,4.57
2023-04-05T06:26:39.494Z,5.10
2023-04-05T06:29:06.363Z,5.22
2023-04-05T06:31:34.547Z,4.72
2023-04-05T06:34:02.658Z,4.15
2023-04-05T06:36:32.571Z,4.78
2023-04-05T06:38:59.658Z,4.30
2023-04-05T06:41:27.911Z,4.20
2023-04-05T06:43:55.702Z,4.65
2023-04-05T06:46:22.754Z,3.92
2023-04-05T06:48:50.416Z,12.57
2023-04-05T06:51:18.627Z,6.63
2023-04-05T06:53:45.474Z,5.50
2023-04-05T06:56:12.602Z,4.25
2023-04-05T06:58:39.343Z,3.35
2023-04-05T07:01:06.673Z,4.43
2023-04-05T07:03:34.088Z,4.28
2023-04-05T07:06:00.857Z,4.40
2023-04-05T07:08:28.978Z,4.03
2023-04-05T07:10:55.798Z,3.63
2023-04-05T07:13:23.633Z,4.38
2023-04-05T07:15:51.403Z,7.45
2023-04-05T07:18:18.506Z,5.65
2023-04-05T07:20:47.793Z,4.63
2023-04-05T07:23:14.494Z,2.33
2023-04-05T07:25:41.636Z,4.10
2023-04-05T07:28:08.303Z,4.03
2023-04-05T07:30:36.934Z,4.65
2023-04-05T07:33:03.880Z,3.53
2023-04-05T07:35:30.810Z,3.78
2023-04-05T07:37:57.566Z,3.88
2023-04-05T07:40:24.303Z,4.47
2023-04-05T07:42:51.113Z,5.18
2023-04-05T07:45:17.969Z,4.15
2023-04-05T07:47:44.657Z,2.67
2023-04-05T07:50:15.367Z,7.00
2023-04-05T07:52:42.592Z,5.70
2023-04-05T07:55:10.175Z,4.25
2023-04-05T07:57:37.698Z,3.80
2023-04-05T08:00:07.739Z,3.75
2023-04-05T08:02:34.463Z,4.28
2023-04-05T08:05:01.286Z,3.97
2023-04-05T08:07:28.065Z,4.10
2023-04-05T08:09:57.697Z,4.35
2023-04-05T08:12:24.391Z,3.30
2023-04-05T08:14:51.445Z,4.03
2023-04-05T08:17:18.287Z,3.70
2023-04-05T08:19:45.059Z,5.05
2023-04-05T08:22:12.128Z,5.93
2023-04-05T08:24:39.048Z,3.72
2023-04-05T08:27:05.763Z,5.32
2023-04-05T08:29:32.551Z,3.85
2023-04-05T08:31:59.257Z,4.47
2023-04-05T08:34:25.976Z,3.50
2023-04-05T08:36:52.635Z,3.97
2023-04-05T08:39:19.312Z,3.65
2023-04-05T08:41:58.668Z,3.65
2023-04-05T08:44:26.364Z,3.67
2023-04-05T08:46:53.343Z,4.57
2023-04-05T08:49:20.141Z,5.55
2023-04-05T08:51:47.041Z,3.60
2023-04-05T08:54:16.793Z,5.13
2023-04-05T08:59:32.758Z,3.60
2023-04-05T09:02:01.706Z,3.65
2023-04-05T09:06:59.357Z,3.75
2023-04-05T09:09:26.110Z,4.45
2023-04-05T09:11:53.596Z,4.75
2023-04-05T09:14:21.354Z,4.30
2023-04-05T09:16:48.123Z,3.83
2023-04-05T09:19:14.963Z,4.22
2023-04-05T09:22:01.241Z,4.53
2023-04-05T09:24:44.857Z,4.40
2023-04-05T09:27:18.786Z,5.18
2023-04-05T09:29:46.924Z,4.28
2023-04-05T09:32:15.507Z,4.05
2023-04-05T09:34:43.491Z,3.72
2023-04-05T09:37:18.369Z,4.38
2023-04-05T09:39:45.915Z,2.67
2023-04-05T09:42:15.514Z,3.80
2023-04-05T09:44:58.230Z,4.25
2023-04-05T09:47:31.289Z,4.53
2023-04-05T09:50:16.792Z,4.15
2023-04-05T09:52:44.129Z,4.72
2023-04-05T09:55:11.471Z,3.80
2023-04-05T09:57:40.906Z,3.65
2023-04-05T10:00:17.984Z,3.85
2023-04-05T10:02:47.440Z,3.58
2023-04-05T10:05:15.835Z,3.72
2023-04-05T10:07:43.482Z,7.35
2023-04-05T10:10:12.371Z,4.45
2023-04-05T10:12:41.495Z,4.35
2023-04-05T10:15:14.082Z,3.00
2023-04-05T10:18:00.725Z,3.08
2023-04-05T10:20:28.601Z,4.53
2023-04-05T10:23:12.155Z,2.85
2023-04-05T10:25:52.270Z,5.32
2023-04-05T10:28:36.393Z,5.20
2023-04-05T10:31:16.855Z,4.97
2023-04-05T10:33:53.978Z,4.55
2023-04-05T10:36:57.931Z,2.55
2023-04-05T10:39:46.120Z,3.65
2023-04-05T10:42:27.541Z,3.20
2023-04-05T10:45:02.515Z,2.88
2023-04-05T10:47:32.113Z,4.38
2023-04-05T10:50:00.610Z,3.15
2023-04-05T10:52:27.965Z,3.50
2023-04-05T10:54:56.767Z,3.70
2023-04-05T10:57:23.972Z,5.47
2023-04-05T10:59:51.140Z,4.68
2023-04-05T11:02:18.509Z,2.67
2023-04-05T11:04:45.272Z,3.90
2023-04-05T11:07:14.859Z,3.65
2023-04-05T11:10:02.202Z,3.67
2023-04-05T11:12:47.335Z,4.07
2023-04-05T11:15:29.090Z,3.55
2023-04-05T11:18:12.472Z,4.00
2023-04-05T11:20:53.061Z,4.55
2023-04-05T11:23:21.625Z,4.40
2023-04-05T11:26:00.763Z,3.33
2023-04-05T11:28:33.362Z,3.40
2023-04-05T11:31:16.861Z,3.42
2023-04-05T11:33:57.583Z,3.42
2023-04-05T11:36:41.634Z,3.85
2023-04-05T11:39:34.510Z,3.53
2023-04-05T11:42:04.091Z,3.33
2023-04-05T11:44:46.942Z,3.63
2023-04-05T11:47:14.246Z,3.78
2023-04-05T11:49:42.576Z,5.15
2023-04-05T11:52:28.127Z,3.15
2023-04-05T11:54:54.771Z,3.50
2023-04-05T11:57:23.348Z,2.78
2023-04-05T11:59:52.132Z,2.95
2023-04-05T12:02:19.094Z,3.80
2023-04-05T12:04:54.215Z,5.28
2023-04-05T12:07:21.081Z,3.97
2023-04-05T12:10:23.000Z,2.83
2023-04-05T12:12:49.730Z,3.03
2023-04-05T12:15:19.119Z,3.72
2023-04-05T12:17:50.826Z,6.35
2023-04-05T12:20:20.206Z,4.05
2023-04-05T12:22:48.835Z,5.15
2023-04-05T12:25:16.788Z,9.20
2023-04-05T12:27:43.799Z,10.80
2023-04-05T12:30:10.797Z,5.88
2023-04-05T12:33:03.182Z,4.57
2023-04-05T12:35:35.043Z,5.57
2023-04-05T12:38:08.066Z,5.95
2023-04-05T12:40:35.781Z,7.93
2023-04-05T12:43:07.201Z,5.55
2023-04-05T12:45:40.871Z,5.85
2023-04-05T12:48:27.273Z,5.35
2023-04-05T12:50:55.165Z,4.72
2023-04-05T12:53:28.480Z,4.22
2023-04-05T12:55:56.603Z,5.78
2023-04-05T12:58:34.257Z,3.92
2023-04-05T13:01:01.183Z,5.78
2023-04-05T13:03:28.178Z,4.97
2023-04-05T13:05:54.939Z,5.40
2023-04-05T13:08:22.023Z,5.82
2023-04-05T13:10:49.445Z,6.07
2023-04-05T13:13:17.354Z,5.53
2023-04-05T13:15:44.584Z,4.68
2023-04-05T13:18:14.798Z,4.45
2023-04-05T13:20:45.149Z,5.70
2023-04-05T13:23:12.922Z,5.95
2023-04-05T13:25:40.983Z,6.40
2023-04-05T13:28:08.084Z,4.97
2023-04-05T13:30:34.785Z,4.25
2023-04-05T13:33:01.655Z,4.97
2023-04-05T13:35:28.407Z,5.68
2023-04-05T13:37:55.053Z,6.10
2023-04-05T13:40:21.712Z,5.38
2023-04-05T13:42:49.183Z,6.03
2023-04-05T13:45:15.875Z,5.00
2023-04-05T13:47:42.646Z,5.95
2023-04-05T13:50:09.610Z,8.98
2023-04-05T13:52:37.543Z,7.10
2023-04-05T13:55:04.499Z,7.88
2023-04-05T13:57:31.692Z,7.25
2023-04-05T13:59:58.444Z,7.18
2023-04-05T14:02:27.301Z,5.35
2023-04-05T14:04:54.448Z,7.15
2023-04-05T14:07:22.141Z,7.00
2023-04-05T14:09:48.781Z,6.20
2023-04-05T14:12:15.549Z,6.38
2023-04-05T14:14:42.222Z,6.28
2023-04-05T14:17:09.093Z,7.07
2023-04-05T14:19:35.818Z,4.88
2023-04-05T14:22:02.549Z,7.65
2023-04-05T14:24:29.306Z,7.32
2023-04-05T14:26:58.690Z,9.00
2023-04-05T14:29:25.632Z,6.55
2023-04-05T14:31:52.445Z,7.35
2023-04-05T14:34:19.895Z,8.02
2023-04-05T14:36:46.617Z,18.75
2023-04-05T14:39:13.329Z,9.07
2023-04-05T14:41:40.183Z,12.48
2023-04-05T14:44:06.857Z,7.85
2023-04-05T14:46:33.624Z,7.35
2023-04-05T14:49:00.432Z,9.38
2023-04-05T14:51:27.442Z,7.78
2023-04-05T14:53:54.127Z,7.78
2023-04-05T14:56:21.208Z,8.35
2023-04-05T14:58:48.047Z,8.07
2023-04-05T15:01:14.782Z,7.07
2023-04-05T15:03:41.746Z,8.82
2023-04-05T15:06:08.564Z,9.55
2023-04-05T15:08:35.279Z,8.90
2023-04-05T15:11:02.050Z,8.10
2023-04-05T15:13:28.819Z,8.32
2023-04-05T15:15:55.763Z,7.57
2023-04-05T15:18:22.493Z,8.63
2023-04-05T15:20:49.501Z,8.50
2023-04-05T15:23:16.370Z,8.82
2023-04-05T15:25:43.068Z,12.57
2023-04-05T15:28:09.739Z,10.00
2023-04-05T15:30:36.582Z,9.27
2023-04-05T15:33:03.677Z,9.95
2023-04-05T15:35:30.945Z,9.88
2023-04-05T15:37:58.694Z,9.90
2023-04-05T15:40:25.406Z,9.95
2023-04-05T15:42:52.175Z,8.80
2023-04-05T15:45:19.098Z,9.55
2023-04-05T15:47:45.883Z,9.15
2023-04-05T15:50:12.651Z,10.50
2023-04-05T15:52:39.353Z,8.57
2023-04-05T15:55:06.405Z,9.00
2023-04-05T15:57:33.127Z,8.52
2023-04-05T15:59:59.808Z,10.15
2023-04-05T16:02:26.566Z,9.50
2023-04-05T16:04:53.516Z,10.25
2023-04-05T16:07:20.268Z,10.20
2023-04-05T16:09:46.980Z,9.60
2023-04-05T16:12:13.814Z,10.32
2023-04-05T16:14:40.664Z,10.30
2023-04-05T16:17:07.466Z,11.75
2023-04-05T16:19:34.174Z,10.10
2023-04-05T16:22:03.091Z,10.63
2023-04-05T16:24:30.168Z,9.57
2023-04-05T16:26:56.942Z,10.98
2023-04-05T16:29:23.613Z,11.23
2023-04-05T16:31:50.374Z,11.43
2023-04-05T16:34:17.126Z,10.90
2023-04-05T16:36:43.902Z,8.85
2023-04-05T16:39:10.755Z,11.68
2023-04-05T16:41:37.440Z,12.70
2023-04-05T16:44:04.170Z,19.65
2023-04-05T16:46:32.261Z,19.55
2023-04-05T16:49:00.319Z,16.00
2023-04-05T16:51:27.855Z,12.02
2023-04-05T16:53:55.344Z,12.32
2023-04-05T16:56:22.902Z,11.85
2023-04-05T16:58:49.695Z,11.90
2023-04-05T17:01:16.839Z,12.00
2023-04-05T17:03:46.995Z,10.02
2023-04-05T17:06:16.620Z,9.57
2023-04-05T17:08:43.487Z,11.50
2023-04-05T17:11:10.424Z,12.38
2023-04-05T17:13:37.198Z,14.20
2023-04-05T17:16:04.100Z,12.15
2023-04-05T17:18:31.000Z,12.20
2023-04-05T17:20:57.655Z,11.98
2023-04-05T17:23:25.567Z,11.35
2023-04-05T17:25:52.288Z,11.52
2023-04-05T17:28:18.929Z,12.55
2023-04-05T17:30:45.851Z,11.43
2023-04-05T17:33:12.794Z,12.63
2023-04-05T17:35:39.539Z,11.55
2023-04-05T17:38:06.320Z,11.82
2023-04-05T17:40:33.063Z,11.80
2023-04-05T17:42:59.851Z,9.65
2023-04-05T17:45:27.541Z,11.02
2023-04-05T17:47:54.423Z,12.70
2023-04-05T17:50:24.859Z,14.63
2023-04-05T17:52:51.761Z,18.38
2023-04-05T17:55:18.524Z,19.40
2023-04-05T17:57:45.246Z,17.95
2023-04-05T18:00:12.708Z,18.92
2023-04-05T18:02:40.906Z,17.77
2023-04-05T18:05:08.176Z,17.52
2023-04-05T18:07:38.758Z,16.83
2023-04-05T18:10:06.370Z,12.43
2023-04-05T18:12:33.644Z,15.23
2023-04-05T18:15:00.466Z,26.80
2023-04-05T18:17:28.119Z,16.73
2023-04-05T18:19:55.025Z,16.42
2023-04-05T18:22:21.774Z,12.80
2023-04-05T18:24:48.513Z,13.20
2023-04-05T18:27:15.386Z,14.10
2023-04-05T18:29:42.690Z,13.23
2023-04-05T18:32:09.856Z,14.00
2023-04-05T18:34:36.796Z,16.77
2023-04-05T18:37:03.594Z,16.35
2023-04-05T18:39:30.318Z,17.52
2023-04-05T18:41:56.991Z,16.75
2023-04-05T18:44:23.629Z,16.35
2023-04-05T18:46:50.580Z,14.63
2023-04-05T18:49:19.025Z,13.77
2023-04-05T18:51:46.030Z,12.38
2023-04-05T18:54:13.961Z,13.25
2023-04-05T18:56:41.032Z,13.23
2023-04-05T18:59:08.150Z,11.93
2023-04-05T19:01:35.235Z,9.32
2023-04-05T19:04:01.984Z,11.23
2023-04-05T19:06:29.454Z,12.50
2023-04-05T19:08:56.230Z,11.18
2023-04-05T19:11:23.303Z,11.50
2023-04-05T19:16:35.019Z,14.52
2023-04-05T19:19:03.761Z,15.13
2023-04-05T19:21:31.009Z,23.08
2023-04-05T19:23:57.956Z,24.38
2023-04-05T19:26:24.601Z,24.25
2023-04-05T19:28:51.370Z,17.38
2023-04-05T19:31:18.171Z,16.90
2023-04-05T19:33:44.881Z,17.27
2023-04-05T19:36:11.626Z,16.13
2023-04-05T19:38:39.952Z,14.52
2023-04-05T19:41:06.711Z,15.10
2023-04-05T19:43:36.643Z,14.32
2023-04-05T19:46:07.971Z,14.30
2023-04-05T19:48:44.404Z,13.60
2023-04-05T19:51:14.152Z,11.32
2023-04-05T19:53:43.596Z,13.82
2023-04-05T19:58:36.892Z,14.25
2023-04-05T20:01:06.014Z,15.45
2023-04-05T20:03:38.001Z,14.52
2023-04-05T20:06:06.261Z,13.50
2023-04-05T20:08:35.573Z,14.70
2023-04-05T20:11:05.545Z,13.68
2023-04-05T20:13:32.905Z,15.13
2023-04-05T20:16:00.016Z,14.05
2023-04-05T20:18:27.206Z,13.90
2023-04-05T20:20:54.263Z,12.40
2023-04-05T20:23:22.590Z,13.35
2023-04-05T20:25:50.869Z,13.55
2023-04-05T20:28:37.914Z,13.93
2023-04-05T20:31:17.316Z,14.27
2023-04-05T20:33:48.283Z,13.52
2023-04-05T20:36:19.911Z,13.52
2023-04-05T20:38:48.023Z,14.00
2023-04-05T20:41:16.396Z,11.65
2023-04-05T20:43:43.419Z,10.63
2023-04-05T20:46:10.314Z,11.05
2023-04-05T20:48:37.565Z,11.23
2023-04-05T20:51:06.506Z,10.70
2023-04-05T20:53:34.236Z,12.15
2023-04-05T20:56:00.959Z,10.30
2023-04-05T20:58:27.968Z,9.55
2023-04-05T21:00:55.757Z,10.10
2023-04-05T21:03:22.499Z,10.35
2023-04-05T21:05:49.458Z,12.48
2023-04-05T21:08:16.423Z,9.65
2023-04-05T21:10:43.218Z,8.32
2023-04-05T21:13:09.954Z,10.80
2023-04-05T21:15:36.781Z,10.20
2023-04-05T21:18:04.545Z,9.45
2023-04-05T21:20:31.950Z,10.38
2023-04-05T21:22:59.381Z,9.50
2023-04-05T21:25:26.128Z,9.70
2023-04-05T21:27:52.997Z,9.32
2023-04-05T21:30:19.733Z,8.95
2023-04-05T21:32:46.593Z,8.27
2023-04-05T21:35:13.293Z,10.15
2023-04-05T21:37:40.036Z,8.80
2023-04-05T21:40:07.531Z,9.27
2023-04-05T21:42:34.273Z,8.55
2023-04-05T21:45:01.185Z,8.65
2023-04-05T21:47:27.976Z,9.05
2023-04-05T21:49:54.667Z,8.90
2023-04-05T21:52:21.357Z,9.02
2023-04-05T21:54:48.041Z,8.68
2023-04-05T21:57:14.752Z,9.60
2023-04-05T21:59:41.530Z,8.45
2023-04-05T22:02:08.418Z,9.15
2023-04-05T22:04:35.703Z,9.38
2023-04-05T22:07:02.422Z,9.13
2023-04-05T22:09:29.301Z,9.63
2023-04-05T22:11:57.072Z,9.10
2023-04-05T22:14:23.912Z,9.05
2023-04-05T22:16:50.628Z,9.75
2023-04-05T22:19:17.601Z,10.07
2023-04-05T22:21:44.321Z,9.45
2023-04-05T22:24:11.408Z,9.95
2023-04-05T22:26:39.284Z,8.80
2023-04-05T22:29:06.370Z,9.30
2023-04-05T22:31:33.605Z,8.85
2023-04-05T22:34:01.171Z,9.10
2023-04-05T22:36:28.203Z,9.38
2023-04-05T22:38:54.870Z,9.35
2023-04-05T22:41:21.608Z,10.27
2023-04-05T22:43:48.289Z,10.75
2023-04-05T22:46:15.120Z,10.85
2023-04-05T22:48:42.023Z,9.80
2023-04-05T22:51:09.036Z,10.15
2023-04-05T22:53:35.765Z,9.82
2023-04-05T22:56:02.564Z,11.18
2023-04-05T22:58:32.787Z,10.02
2023-04-05T23:00:59.965Z,10.65
2023-04-05T23:03:26.754Z,9.63
2023-04-05T23:05:53.443Z,7.57
2023-04-05T23:08:20.627Z,10.88
2023-04-05T23:10:48.134Z,10.57
2023-04-05T23:13:15.374Z,10.73
2023-04-05T23:15:42.166Z,11.27
2023-04-05T23:18:09.197Z,12.25
2023-04-05T23:20:36.242Z,10.23
2023-04-05T23:23:02.934Z,11.23
2023-04-05T23:25:29.661Z,10.93
2023-04-05T23:27:56.400Z,12.13
2023-04-05T23:30:23.037Z,11.20
2023-04-05T23:32:50.236Z,10.88
2023-04-05T23:35:17.194Z,11.23
2023-04-05T23:37:43.973Z,11.27
2023-04-05T23:40:11.241Z,10.50
2023-04-05T23:42:37.940Z,9.88
2023-04-05T23:45:08.990Z,10.20
